Time;durP1;ratioP1;P1;durP2;ratioP2;P2;SDS_P1;SDS_P2;PMS_P1;PMS_P2;Temp;Humidity;BMP_temperature;BMP_pressure;BME280_temperature;BME280_humidity;BME280_pressure;Samples;Min_cycle;Max_cycle;Signal;HPM_P1;HPM_P2
2023/09/19 00:03:31;;;;;;;1.98;1.42;;;;;;;-145.68;100.00;72950.16;10448290;28;20199;-74
2023/09/19 00:08:33;;;;;;;4.65;1.65;;;;;;;-145.68;100.00;72912.19;10448945;28;20188;-74
2023/09/19 00:13:35;;;;;;;6.88;1.60;;;;;;;-145.68;100.00;72886.22;10448155;28;20737;-74
2023/09/19 00:18:37;;;;;;;2.85;1.75;;;;;;;-145.68;100.00;72840.25;10448585;28;20699;-74
2023/09/19 00:23:40;;;;;;;3.75;1.70;;;;;;;-145.68;100.00;72848.25;10447812;28;20223;-74
2023/09/19 00:28:41;;;;;;;2.35;1.42;;;;;;;-145.68;100.00;72858.22;10447987;28;20603;-74
2023/09/19 00:33:41;;;;;;;4.00;1.58;;;;;;;-145.68;100.00;72864.22;10429420;28;20188;-74
2023/09/19 00:38:44;;;;;;;6.72;1.98;;;;;;;-145.68;100.00;72864.22;10430007;28;20565;-74
2023/09/19 00:43:45;;;;;;;3.75;1.75;;;;;;;-145.68;100.00;72878.22;10446671;28;20536;-74
2023/09/19 00:48:46;;;;;;;2.33;1.40;;;;;;;-145.68;100.00;72860.22;10411987;28;20231;-74
2023/09/19 00:53:47;;;;;;;5.85;1.75;;;;;;;-145.68;100.00;72860.22;10412617;28;20346;-74
2023/09/19 00:58:48;;;;;;;2.22;1.77;;;;;;;-145.68;100.00;72864.22;10412801;28;20235;-74
2023/09/19 01:03:49;;;;;;;2.90;1.60;;;;;;;-145.68;100.00;72848.25;10446079;28;20195;-74
2023/09/19 01:08:50;;;;;;;3.28;1.33;;;;;;;-145.68;100.00;72838.25;10428902;28;20210;-75
2023/09/19 01:13:59;;;;;;;6.78;1.98;;;;;;;-145.68;100.00;72796.28;10428524;28;20219;-74
2023/09/19 01:19:14;;;;;;;1.45;1.35;;;;;;;-145.68;100.00;72784.28;10428648;28;20687;-74
2023/09/19 01:24:42;;;;;;;1.60;1.33;;;;;;;-145.68;100.00;72772.31;10427914;28;20222;-74
2023/09/19 01:29:44;;;;;;;6.93;1.63;;;;;;;-145.68;100.00;72782.28;10411398;28;20201;-74
2023/09/19 01:34:49;;;;;;;2.55;1.33;;;;;;;-145.68;100.00;72780.28;10408007;28;20621;-74
2023/09/19 01:39:53;;;;;;;2.88;1.45;;;;;;;-145.68;100.00;72770.31;10427317;28;20611;-74
2023/09/19 01:45:13;;;;;;;2.70;1.30;;;;;;;-145.68;100.00;72778.28;10428647;28;20221;-74
2023/09/19 01:50:40;;;;;;;3.30;1.27;;;;;;;-145.68;100.00;72786.28;10410699;28;20616;-74
2023/09/19 01:55:44;;;;;;;4.25;1.10;;;;;;;-145.68;100.00;72774.31;10411102;28;20188;-74
2023/09/19 02:00:46;;;;;;;5.40;1.17;;;;;;;-145.68;100.00;72796.28;10410802;28;20220;-74
2023/09/19 02:05:51;;;;;;;4.20;1.40;;;;;;;-145.68;100.00;72804.28;10435980;28;20222;-74
2023/09/19 02:10:53;;;;;;;3.75;1.50;;;;;;;-145.68;100.00;72828.25;10418438;28;20278;-74
2023/09/19 02:15:53;;;;;;;2.45;1.38;;;;;;;-145.68;100.00;72848.25;10435698;28;20648;-74
2023/09/19 02:20:54;;;;;;;1.40;1.20;;;;;;;-145.68;100.00;72838.25;10434428;28;20224;-74
2023/09/19 02:25:56;;;;;;;6.20;1.30;;;;;;;-145.68;100.00;72822.25;10453069;28;20249;-74
2023/09/19 02:31:00;;;;;;;1.77;1.30;;;;;;;-145.68;100.00;72836.25;10434152;28;20196;-74
2023/09/19 02:36:03;;;;;;;4.82;1.42;;;;;;;-145.68;100.00;72828.25;10452726;28;20187;-74
2023/09/19 02:41:04;;;;;;;4.10;1.30;;;;;;;-145.68;100.00;72870.22;10433995;28;20226;-74
2023/09/19 02:46:05;;;;;;;2.78;1.02;;;;;;;-145.68;100.00;72850.25;10434413;28;20207;-75
2023/09/19 02:51:05;;;;;;;1.75;1.13;;;;;;;-145.68;100.00;72858.22;10409349;28;20611;-74
2023/09/19 02:56:06;;;;;;;2.50;1.10;;;;;;;-145.68;100.00;72880.22;10399832;28;20188;-74
2023/09/19 03:01:12;;;;;;;2.90;1.00;;;;;;;-145.68;100.00;72872.22;10409443;28;20295;-74
2023/09/19 03:06:13;;;;;;;2.08;1.05;;;;;;;-145.68;100.00;72856.22;10409480;28;20189;-74
2023/09/19 03:11:14;;;;;;;1.30;0.98;;;;;;;-145.68;100.00;72862.22;10406515;28;20558;-74
2023/09/19 03:16:18;;;;;;;1.27;1.10;;;;;;;-145.68;100.00;72864.22;10407268;28;20188;-74
2023/09/19 03:21:19;;;;;;;2.72;1.30;;;;;;;-145.68;100.00;72872.22;10406908;28;20640;-74
2023/09/19 03:26:20;;;;;;;1.70;1.17;;;;;;;-145.68;100.00;72866.22;10407440;28;20280;-74
2023/09/19 03:31:21;;;;;;;1.88;1.27;;;;;;;-145.68;100.00;72882.22;10408222;28;20204;-74
2023/09/19 03:36:22;;;;;;;2.58;1.05;;;;;;;-145.68;100.00;72878.22;10411004;28;20185;-74
2023/09/19 03:41:23;;;;;;;2.85;1.58;;;;;;;-145.68;100.00;72898.19;10407695;28;20244;-74
2023/09/19 03:46:24;;;;;;;4.70;1.40;;;;;;;-145.68;100.00;72886.22;10407875;28;20192;-74
2023/09/19 03:51:25;;;;;;;6.45;1.45;;;;;;;-145.68;100.00;72884.22;10406575;28;20231;-74
2023/09/19 03:56:25;;;;;;;3.45;1.42;;;;;;;-145.68;100.00;72884.22;10413293;28;20207;-74
2023/09/19 04:01:27;;;;;;;3.17;1.60;;;;;;;-145.68;100.00;72900.19;10407786;28;20211;-74
2023/09/19 04:06:28;;;;;;;3.92;1.50;;;;;;;-145.68;100.00;72888.22;10412748;28;20192;-74
2023/09/19 04:11:30;;;;;;;3.20;1.40;;;;;;;-145.68;100.00;72908.19;10402309;28;20296;-74
2023/09/19 04:16:30;;;;;;;2.92;1.58;;;;;;;-145.68;100.00;72902.19;10412565;28;20195;-74
2023/09/19 04:21:31;;;;;;;3.58;1.23;;;;;;;-145.68;100.00;72908.19;10405587;28;20216;-74
2023/09/19 04:26:32;;;;;;;2.42;1.38;;;;;;;-145.68;100.00;72914.19;10405902;28;20189;-74
2023/09/19 04:31:33;;;;;;;2.33;1.35;;;;;;;-145.68;100.00;72938.16;10406478;28;20185;-74
2023/09/19 04:36:33;;;;;;;1.98;1.60;;;;;;;-145.68;100.00;72948.16;10411851;28;20189;-74
2023/09/19 04:41:34;;;;;;;1.58;1.30;;;;;;;-145.68;100.00;72948.16;10406599;28;20216;-74
2023/09/19 04:46:35;;;;;;;3.17;1.23;;;;;;;-145.68;100.00;72948.16;10407904;28;20664;-75
2023/09/19 04:51:36;;;;;;;1.90;1.58;;;;;;;-145.68;100.00;72960.16;10457963;28;20195;-74
2023/09/19 04:56:40;;;;;;;2.03;1.52;;;;;;;-145.68;100.00;72972.16;10446412;28;20207;-74
2023/09/19 05:01:40;;;;;;;2.28;1.70;;;;;;;-145.68;100.00;72976.16;10442099;28;20224;-74
2023/09/19 05:06:41;;;;;;;2.00;1.38;;;;;;;-145.68;100.00;72972.16;10441947;28;20195;-74
2023/09/19 05:11:41;;;;;;;2.22;1.70;;;;;;;-145.68;100.00;72974.16;10452557;28;20203;-74
2023/09/19 05:16:41;;;;;;;3.35;1.95;;;;;;;-145.68;100.00;72996.13;10429226;28;20783;-74
2023/09/19 05:21:43;;;;;;;1.67;1.40;;;;;;;-145.68;100.00;72998.13;10452643;28;20220;-74
2023/09/19 05:26:44;;;;;;;3.30;1.40;;;;;;;-145.68;100.00;73010.13;10428777;28;20671;-74
2023/09/19 05:31:44;;;;;;;1.45;1.23;;;;;;;-145.68;100.00;73010.13;10451736;28;20198;-74
2023/09/19 05:36:44;;;;;;;4.88;1.33;;;;;;;-145.68;100.00;72998.13;10446164;28;20207;-74
2023/09/19 05:41:47;;;;;;;1.95;1.50;;;;;;;-145.68;100.00;73004.13;10446096;28;20216;-74
2023/09/19 05:46:48;;;;;;;3.03;1.80;;;;;;;-145.68;100.00;72988.13;10445637;28;20626;-74
2023/09/19 05:51:48;;;;;;;1.52;1.42;;;;;;;-145.68;100.00;72972.16;10451598;28;20195;-74
2023/09/19 05:56:52;;;;;;;4.88;1.65;;;;;;;-145.68;100.00;72990.13;10446066;28;20247;-74
2023/09/19 06:01:52;;;;;;;2.67;1.23;;;;;;;-145.68;100.00;72988.13;10445383;28;20257;-74
2023/09/19 06:06:53;;;;;;;4.47;1.27;;;;;;;-145.68;100.00;72978.16;10449106;28;20723;-74
2023/09/19 06:11:55;;;;;;;1.65;1.48;;;;;;;-145.68;100.00;72972.16;10430096;28;20759;-73
2023/09/19 06:16:55;;;;;;;2.40;1.40;;;;;;;-145.68;100.00;72958.16;10445131;28;20192;-74
2023/09/19 06:21:56;;;;;;;3.25;1.40;;;;;;;-145.68;100.00;72978.16;10427448;28;20695;-74
2023/09/19 06:26:56;;;;;;;1.27;1.17;;;;;;;-145.68;99.43;72944.16;10433764;28;20200;-74
2023/09/19 06:31:57;;;;;;;1.95;1.40;;;;;;;-145.68;97.47;72914.19;10447034;28;20196;-74
2023/09/19 06:36:58;;;;;;;3.38;1.30;;;;;;;-145.68;92.58;72880.22;10445096;28;20203;-74
2023/09/19 06:42:00;;;;;;;3.00;1.38;;;;;;;-145.68;89.43;72916.19;10442555;28;20219;-74
2023/09/19 06:47:00;;;;;;;3.78;1.27;;;;;;;-145.68;90.40;72884.22;10434831;28;20297;-74
2023/09/19 06:52:02;;;;;;;1.50;1.20;;;;;;;-145.68;90.70;72928.19;10432414;28;20734;-74
2023/09/19 06:57:03;;;;;;;3.78;1.50;;;;;;;-145.68;95.03;72972.16;10452683;28;20545;-74
2023/09/19 07:02:05;;;;;;;3.30;1.40;;;;;;;-145.68;95.77;72966.16;10451145;28;20223;-74
2023/09/19 07:07:08;;;;;;;6.78;1.42;;;;;;;-145.68;94.55;72936.19;10457815;28;20199;-74
2023/09/19 07:12:09;;;;;;;2.20;1.30;;;;;;;-145.68;93.09;72924.19;10451295;28;20191;-74
2023/09/19 07:17:09;;;;;;;3.20;1.35;;;;;;;-145.68;91.10;72920.19;10450820;28;20192;-74
2023/09/19 07:22:09;;;;;;;1.70;1.27;;;;;;;-145.68;91.19;72936.19;10451222;28;20226;-74
2023/09/19 07:27:10;;;;;;;1.38;1.15;;;;;;;-145.68;88.66;72900.19;10463000;28;20583;-75
2023/09/19 07:32:11;;;;;;;3.25;1.38;;;;;;;-145.68;91.05;72948.16;10450224;28;20210;-74
2023/09/19 07:37:13;;;;;;;4.63;1.50;;;;;;;-145.68;89.70;72910.19;10450298;28;20205;-74
2023/09/19 07:42:17;;;;;;;2.00;1.30;;;;;;;-145.68;87.12;72860.22;10455591;28;20758;-74
2023/09/19 07:47:17;;;;;;;2.13;1.30;;;;;;;-145.68;80.73;72784.28;10456370;28;20330;-74
2023/09/19 07:52:19;;;;;;;4.03;1.38;;;;;;;-145.68;76.85;72740.31;10449563;28;20241;-74
2023/09/19 07:57:19;;;;;;;2.65;1.40;;;;;;;-145.68;78.63;72820.25;10449520;28;20606;-74
2023/09/19 08:02:20;;;;;;;4.20;1.48;;;;;;;-145.68;78.56;72808.28;10454398;28;20277;-75
2023/09/19 08:07:22;;;;;;;4.82;1.58;;;;;;;-145.68;79.17;72824.25;10449467;28;20257;-75
2023/09/19 08:12:22;;;;;;;1.63;1.35;;;;;;;-145.68;75.49;72734.31;10448942;28;20195;-74
2023/09/19 08:17:23;;;;;;;1.60;1.13;;;;;;;-145.68;74.56;72816.25;10448771;28;20564;-74
2023/09/19 08:22:24;;;;;;;4.28;1.77;;;;;;;-145.68;78.02;72818.25;10454495;28;20224;-74
2023/09/19 08:27:27;;;;;;;2.85;1.35;;;;;;;-145.68;72.96;72714.34;10448182;28;20241;-74
2023/09/19 08:32:28;;;;;;;1.42;1.20;;;;;;;-145.68;69.51;72616.44;10430319;28;20196;-74
2023/09/19 08:37:29;;;;;;;1.33;1.13;;;;;;;-145.68;65.83;72584.44;10444538;28;20207;-74
2023/09/19 08:42:29;;;;;;;2.05;1.38;;;;;;;-145.68;62.65;72568.47;10453192;28;20211;-74
2023/09/19 08:47:54;;;;;;;1.70;1.10;;;;;;;-145.68;61.27;72548.47;10447978;28;20231;-74
2023/09/19 08:52:56;;;;;;;2.00;1.10;;;;;;;-145.68;62.91;72600.44;10429732;28;20188;-74
2023/09/19 08:58:04;;;;;;;3.35;1.35;;;;;;;-145.68;62.86;72678.38;10433798;28;20629;-74
2023/09/19 09:03:06;;;;;;;1.70;1.25;;;;;;;-145.68;62.25;72766.31;10430035;28;20265;-74
2023/09/19 09:08:07;;;;;;;1.30;1.20;;;;;;;-145.68;63.88;72740.31;10429141;28;20195;-74
2023/09/19 09:13:09;;;;;;;3.25;1.05;;;;;;;-145.68;61.21;72688.38;10428156;28;20192;-74
2023/09/19 09:18:09;;;;;;;2.10;1.27;;;;;;;-145.68;60.72;72660.38;10435201;28;20587;-74
2023/09/19 09:23:09;;;;;;;2.55;1.30;;;;;;;-145.68;58.89;72528.50;10428836;28;20282;-74
2023/09/19 09:28:11;;;;;;;5.20;1.42;;;;;;;-145.68;60.85;72684.38;10445922;28;20283;-74
2023/09/19 09:33:12;;;;;;;1.40;1.13;;;;;;;-145.68;59.51;72542.50;10446199;28;20200;-74
2023/09/19 09:38:13;;;;;;;3.75;1.52;;;;;;;-145.68;57.48;72546.47;10451689;28;20688;-74
2023/09/19 09:43:46;;;;;;;1.95;1.08;;;;;;;-145.68;54.98;72398.63;10446430;28;20310;-74
2023/09/19 09:54:36;;;;;;;5.43;1.20;;;;;;;-145.68;50.83;72308.69;10396158;28;20618;-74
2023/09/19 09:59:47;;;;;;;3.75;1.33;;;;;;;-145.68;50.41;72338.66;10450413;28;20249;-73
2023/09/19 10:10:15;;;;;;;0.82;0.82;;;;;;;-145.68;52.61;72594.44;10445111;28;20184;-74
2023/09/19 10:15:20;;;;;;;0.95;0.85;;;;;;;-145.68;52.13;72656.41;10451602;28;20570;-74
2023/09/19 10:20:38;;;;;;;1.33;0.93;;;;;;;-145.68;54.80;72756.31;10412518;28;20761;-74
2023/09/19 10:25:45;;;;;;;3.35;1.13;;;;;;;-145.68;55.81;72780.28;10438301;28;20750;-74
2023/09/19 10:30:47;;;;;;;1.63;1.10;;;;;;;-145.68;51.76;72528.50;10434267;28;20214;-74
2023/09/19 10:35:49;;;;;;;0.93;0.93;;;;;;;-145.68;52.03;72618.44;10453479;28;20179;-74
2023/09/19 10:40:51;;;;;;;1.20;1.00;;;;;;;-145.68;48.51;72348.66;10434347;28;20223;-74
2023/09/19 10:45:53;;;;;;;3.45;1.13;;;;;;;-145.68;49.11;72518.50;10452786;28;20191;-73
2023/09/19 10:51:04;;;;;;;2.38;0.98;;;;;;;-145.68;49.61;72460.56;10423049;28;20231;-74
2023/09/19 10:56:14;;;;;;;1.05;1.00;;;;;;;-145.68;46.82;72264.72;10433608;28;20199;-74
2023/09/19 11:01:15;;;;;;;1.42;1.20;;;;;;;-145.68;43.61;72258.75;10434852;28;20785;-74
2023/09/19 11:06:18;;;;;;;1.85;1.00;;;;;;;-145.68;44.89;72390.63;10439439;28;20202;-74
2023/09/19 11:11:41;;;;;;;2.47;1.10;;;;;;;-145.68;45.63;72476.53;10433773;28;20192;-74
2023/09/19 11:17:11;;;;;;;2.13;1.25;;;;;;;-145.68;42.75;72294.72;10453170;28;20307;-74
2023/09/19 11:22:11;;;;;;;1.33;1.08;;;;;;;-145.68;43.85;72366.63;10450794;28;20302;-75
2023/09/19 11:27:14;;;;;;;3.28;1.17;;;;;;;-145.68;44.65;72400.59;10439256;28;20664;-75
2023/09/19 11:32:15;;;;;;;4.68;1.08;;;;;;;-145.68;44.36;72440.56;10449952;28;20214;-74
2023/09/19 11:37:15;;;;;;;0.98;0.88;;;;;;;-145.68;43.64;72212.78;10449755;28;20202;-74
2023/09/19 11:42:44;;;;;;;2.65;0.95;;;;;;;-145.68;42.17;72314.69;10450178;28;20230;-74
2023/09/19 11:47:45;;;;;;;1.88;1.10;;;;;;;-145.68;43.74;72444.56;10456817;28;20309;-74
2023/09/19 11:52:46;;;;;;;1.83;1.13;;;;;;;-145.68;42.68;72320.69;10431956;28;20652;-75
2023/09/19 11:57:50;;;;;;;2.78;1.17;;;;;;;-145.68;41.84;72266.72;10431735;28;20655;-75
2023/09/19 12:02:56;;;;;;;1.85;1.30;;;;;;;-145.68;43.47;72454.56;10435097;28;20254;-75
2023/09/19 12:07:56;;;;;;;2.38;1.60;;;;;;;-145.68;42.49;72376.63;10433795;28;20188;-74
2023/09/19 12:12:59;;;;;;;7.15;1.30;;;;;;;-145.68;42.30;72326.69;10431087;28;20184;-74
2023/09/19 12:18:00;;;;;;;3.90;1.48;;;;;;;-145.68;44.41;72524.50;10431330;28;20277;-74
2023/09/19 12:23:01;;;;;;;1.58;1.48;;;;;;;-145.68;42.58;72402.59;10436415;28;20226;-74
2023/09/19 12:28:02;;;;;;;2.22;1.52;;;;;;;-145.68;41.95;72456.56;10431014;28;20234;-74
2023/09/19 12:33:03;;;;;;;3.45;1.73;;;;;;;-145.68;41.56;72370.63;10448230;28;20226;-74
2023/09/19 12:38:04;;;;;;;2.10;1.30;;;;;;;-145.68;41.46;72436.56;10430177;28;20216;-74
2023/09/19 12:43:06;;;;;;;3.03;1.60;;;;;;;-145.68;41.87;72462.56;10454022;28;20227;-74
2023/09/19 12:48:34;;;;;;;1.10;1.10;;;;;;;-145.68;42.29;72570.47;10428992;28;20318;-74
2023/09/19 12:53:46;;;;;;;4.25;1.17;;;;;;;-145.68;43.69;72524.50;10444363;28;20494;-74
2023/09/19 12:59:02;;;;;;;4.38;1.52;;;;;;;-145.68;42.40;72574.47;10447349;28;20212;-74
2023/09/19 13:04:20;;;;;;;2.65;1.42;;;;;;;-145.68;41.69;72522.50;10435575;28;20202;-74
2023/09/19 13:09:24;;;;;;;1.73;1.38;;;;;;;-145.68;42.20;72524.50;10428796;28;20221;-74
2023/09/19 13:14:37;;;;;;;3.75;1.70;;;;;;;-145.68;41.29;72508.50;10429734;28;20274;-74
2023/09/19 13:19:45;;;;;;;2.00;1.70;;;;;;;-145.68;41.77;72532.50;10451867;28;20721;-74
2023/09/19 13:24:51;;;;;;;5.13;1.90;;;;;;;-145.68;41.39;72506.50;10428946;28;20188;-74
2023/09/19 13:29:51;;;;;;;2.47;1.73;;;;;;;-145.68;40.58;72398.63;10452446;28;20271;-74
2023/09/19 13:34:51;;;;;;;4.47;1.58;;;;;;;-145.68;41.59;72456.56;10446152;28;20203;-75
2023/09/19 13:39:53;;;;;;;3.30;1.67;;;;;;;-145.68;41.87;72484.53;10451638;28;20220;-74
2023/09/19 13:44:54;;;;;;;5.25;1.60;;;;;;;-145.68;41.27;72360.66;10446075;28;20215;-74
2023/09/19 13:49:54;;;;;;;5.78;1.75;;;;;;;-145.68;40.93;72354.66;10445596;28;20349;-75
2023/09/19 13:54:58;;;;;;;2.17;1.40;;;;;;;-145.68;43.42;72494.53;10446946;28;20265;-75
2023/09/19 13:59:58;;;;;;;2.65;1.58;;;;;;;-145.68;43.18;72434.59;10444357;28;20219;-74
2023/09/19 14:04:58;;;;;;;2.13;1.60;;;;;;;-145.68;40.91;72366.63;10454032;28;20616;-74
2023/09/19 14:09:59;;;;;;;2.00;1.70;;;;;;;-145.68;40.76;72492.53;10451648;28;20202;-74
2023/09/19 14:14:59;;;;;;;2.95;1.90;;;;;;;-145.68;41.25;72424.59;10453716;28;20261;-75
2023/09/19 14:20:00;;;;;;;3.00;1.63;;;;;;;-145.68;41.17;72476.53;10459454;28;20224;-74
2023/09/19 14:25:00;;;;;;;2.92;1.70;;;;;;;-145.68;38.76;72134.84;10453668;28;20195;-75
2023/09/19 14:30:00;;;;;;;3.28;1.80;;;;;;;-145.68;38.77;72136.84;10434770;28;20253;-74
2023/09/19 14:35:01;;;;;;;2.35;1.48;;;;;;;-145.68;38.45;72072.91;10457093;28;20652;-74
2023/09/19 14:40:07;;;;;;;4.68;1.85;;;;;;;-145.68;39.40;72218.78;10454195;28;20583;-74
2023/09/19 14:45:09;;;;;;;3.78;1.65;;;;;;;-145.68;40.10;72356.66;10452825;28;20201;-74
2023/09/19 14:50:10;;;;;;;2.85;1.83;;;;;;;-145.68;39.17;72170.81;10451672;28;20702;-75
2023/09/19 14:55:14;;;;;;;4.03;1.70;;;;;;;-145.68;36.56;71901.09;10458569;28;20250;-74
2023/09/19 15:00:14;;;;;;;6.32;1.52;;;;;;;-145.68;37.47;72092.91;10451141;28;20216;-74
2023/09/19 15:05:16;;;;;;;2.40;1.63;;;;;;;-145.68;35.62;71857.13;10452166;28;20199;-75
2023/09/19 15:10:18;;;;;;;3.55;1.45;;;;;;;-145.68;34.84;71735.25;10431841;28;20786;-74
2023/09/19 15:15:18;;;;;;;3.58;1.40;;;;;;;-145.68;35.19;71787.19;10457188;28;20225;-74
2023/09/19 15:20:19;;;;;;;4.60;1.92;;;;;;;-145.68;37.00;72006.97;10433181;28;20238;-74
2023/09/19 15:25:19;;;;;;;3.13;1.48;;;;;;;-145.68;35.68;71821.16;10451253;28;20196;-75
2023/09/19 15:30:20;;;;;;;2.13;1.60;;;;;;;-145.68;37.43;71989.00;10456395;28;20191;-74
2023/09/19 15:35:21;;;;;;;3.05;2.10;;;;;;;-145.68;38.02;72252.75;10456733;28;20675;-74
2023/09/19 15:40:24;;;;;;;2.92;1.75;;;;;;;-145.68;37.23;72302.69;10432437;28;20208;-74
2023/09/19 15:45:25;;;;;;;2.42;1.83;;;;;;;-145.68;38.17;72416.59;10450067;28;20203;-73
2023/09/19 15:50:25;;;;;;;4.57;1.80;;;;;;;-145.68;36.03;72198.78;10449693;28;20261;-74
2023/09/19 15:55:26;;;;;;;2.78;1.83;;;;;;;-145.68;36.33;72136.84;10455726;28;20188;-74
2023/09/19 16:00:27;;;;;;;4.35;1.70;;;;;;;-145.68;37.66;72272.72;10449163;28;20211;-74
2023/09/19 16:05:28;;;;;;;5.03;2.13;;;;;;;-145.68;37.63;72294.72;10449878;28;20192;-74
2023/09/19 16:10:28;;;;;;;2.58;2.03;;;;;;;-145.68;40.25;72516.50;10442730;28;20187;-73
2023/09/19 16:15:29;;;;;;;3.55;1.85;;;;;;;-145.68;42.04;72642.41;10449092;28;20184;-74
2023/09/19 16:20:33;;;;;;;4.40;2.47;;;;;;;-145.68;43.57;72670.38;10430157;28;20212;-74
2023/09/19 16:25:33;;;;;;;3.13;2.10;;;;;;;-145.68;43.23;72690.38;10448600;28;20306;-74
2023/09/19 16:30:33;;;;;;;2.92;2.00;;;;;;;-145.68;43.68;72718.34;10436317;28;20731;-74
2023/09/19 16:35:37;;;;;;;4.75;2.17;;;;;;;-145.68;44.56;72784.28;10450881;28;20703;-74
2023/09/19 16:40:37;;;;;;;3.40;2.10;;;;;;;-145.68;45.96;72828.25;10447395;28;20230;-73
2023/09/19 16:45:39;;;;;;;3.42;2.15;;;;;;;-145.68;46.38;72840.25;10448008;28;20192;-73
2023/09/19 16:50:40;;;;;;;2.97;2.30;;;;;;;-145.68;46.87;72886.22;10453393;28;20235;-74
2023/09/19 16:55:40;;;;;;;2.78;2.17;;;;;;;-145.68;47.91;72930.19;10413113;28;20663;-74
2023/09/19 17:00:48;;;;;;;4.82;2.30;;;;;;;-145.68;48.20;72956.16;10429246;28;20684;-74
2023/09/19 17:05:48;;;;;;;2.92;2.08;;;;;;;-145.68;48.74;72974.16;10447122;28;20187;-74
2023/09/19 17:10:49;;;;;;;4.28;2.78;;;;;;;-145.68;50.16;73030.09;10418374;28;20240;-74
2023/09/19 17:15:59;;;;;;;2.65;2.22;;;;;;;-145.68;51.06;73084.06;10446707;28;20726;-74
2023/09/19 17:21:01;;;;;;;3.17;2.10;;;;;;;-145.68;51.46;73098.06;10444260;28;20238;-74
2023/09/19 17:26:04;;;;;;;6.30;2.33;;;;;;;-145.68;53.39;73160.00;10450563;28;20191;-74
2023/09/19 17:31:11;;;;;;;3.88;2.25;;;;;;;-145.68;54.79;73190.00;10446794;28;20645;-74
2023/09/19 17:36:23;;;;;;;8.32;2.70;;;;;;;-145.68;55.68;73225.97;10446434;28;20192;-74
2023/09/19 17:41:24;;;;;;;4.03;2.40;;;;;;;-145.68;56.26;73261.94;10445054;28;20251;-74
2023/09/19 17:46:25;;;;;;;6.13;2.40;;;;;;;-145.68;57.07;73295.94;10453103;28;20268;-74
2023/09/19 17:51:28;;;;;;;6.30;2.45;;;;;;;-145.68;58.77;73307.91;10445139;28;20304;-74
2023/09/19 17:56:29;;;;;;;4.78;2.60;;;;;;;-145.68;59.55;73335.91;10427931;28;20908;-74
2023/09/19 18:01:32;;;;;;;5.03;2.97;;;;;;;-145.68;59.96;73351.88;10445442;28;20281;-74
2023/09/19 18:06:32;;;;;;;5.80;2.35;;;;;;;-145.68;60.54;73375.88;10433575;28;20200;-74
2023/09/19 18:11:33;;;;;;;6.80;2.38;;;;;;;-145.68;62.74;73431.84;10445744;28;20682;-74
2023/09/19 18:16:33;;;;;;;5.70;2.83;;;;;;;-145.68;63.56;73417.84;10445650;28;20733;-74
2023/09/19 18:21:34;;;;;;;4.65;2.28;;;;;;;-145.68;64.18;73445.81;10444909;28;20753;-73
2023/09/19 18:26:35;;;;;;;4.07;2.28;;;;;;;-145.68;64.81;73457.81;10451311;28;21011;-73
2023/09/19 18:31:37;;;;;;;3.72;2.58;;;;;;;-145.68;66.15;73473.81;10444933;28;20196;-74
2023/09/19 18:36:38;;;;;;;3.97;2.28;;;;;;;-145.68;66.70;73471.81;10445237;28;20196;-74
2023/09/19 18:41:38;;;;;;;4.05;2.80;;;;;;;-145.68;67.39;73491.81;10447283;28;20220;-74
2023/09/19 18:46:43;;;;;;;7.65;2.50;;;;;;;-145.68;67.98;73491.81;10457282;28;20195;-73
2023/09/19 18:51:44;;;;;;;3.33;2.50;;;;;;;-145.68;67.65;73477.81;10451992;28;20223;-74
2023/09/19 18:56:45;;;;;;;4.82;2.60;;;;;;;-145.68;67.63;73477.81;10434370;28;20238;-74
2023/09/19 19:01:46;;;;;;;4.32;2.33;;;;;;;-145.68;67.02;73451.81;10457756;28;20220;-73
2023/09/19 19:06:47;;;;;;;4.70;2.42;;;;;;;-145.68;65.68;73431.84;10451894;28;20206;-74
2023/09/19 19:11:47;;;;;;;2.78;2.10;;;;;;;-145.68;64.05;73405.84;10451874;28;20288;-74
2023/09/19 19:16:48;;;;;;;5.15;1.95;;;;;;;-145.68;63.21;73397.84;10459984;28;20191;-74
2023/09/19 19:21:48;;;;;;;4.38;2.33;;;;;;;-145.68;63.13;73405.84;10439158;28;20309;-74
2023/09/19 19:26:49;;;;;;;4.38;2.38;;;;;;;-145.68;62.88;73413.84;10451310;28;20204;-74
2023/09/19 19:31:50;;;;;;;4.78;2.28;;;;;;;-145.68;62.07;73399.84;10433081;28;20192;-74
2023/09/19 19:36:51;;;;;;;3.95;2.10;;;;;;;-145.68;62.09;73393.84;10450774;28;20269;-75
2023/09/19 19:41:51;;;;;;;6.38;2.55;;;;;;;-145.68;62.69;73415.84;10438279;28;20227;-75
2023/09/19 19:46:52;;;;;;;4.32;2.22;;;;;;;-145.68;62.87;73419.84;10450450;28;20248;-75
2023/09/19 19:51:52;;;;;;;4.10;2.08;;;;;;;-145.68;62.71;73407.84;10449710;28;20283;-74
2023/09/19 19:56:53;;;;;;;3.58;1.70;;;;;;;-145.68;63.01;73419.84;10449588;28;20199;-74
2023/09/19 20:01:53;;;;;;;3.20;1.88;;;;;;;-145.68;62.82;73413.84;10455146;28;20269;-74
2023/09/19 20:06:53;;;;;;;4.78;2.15;;;;;;;-145.68;62.88;73415.84;10450029;28;20195;-74
2023/09/19 20:11:54;;;;;;;2.42;1.92;;;;;;;-145.68;62.52;73397.84;10449038;28;20191;-75
2023/09/19 20:16:56;;;;;;;4.35;1.80;;;;;;;-145.68;62.42;73395.84;10428696;28;20666;-75
2023/09/19 20:21:57;;;;;;;4.60;1.83;;;;;;;-145.68;61.85;73375.88;10431120;28;20239;-75
2023/09/19 20:27:00;;;;;;;2.80;1.90;;;;;;;-145.68;62.35;73393.84;10411169;28;20198;-74
2023/09/19 20:32:01;;;;;;;6.13;2.22;;;;;;;-145.68;62.57;73391.84;10430206;28;20211;-75
2023/09/19 20:37:01;;;;;;;2.42;1.77;;;;;;;-145.68;62.27;73379.88;10451107;28;20215;-75
2023/09/19 20:42:02;;;;;;;4.18;2.15;;;;;;;-145.68;62.45;73375.88;10447948;28;20219;-75
2023/09/19 20:47:04;;;;;;;4.43;1.90;;;;;;;-145.68;62.02;73363.88;10447663;28;20247;-75
2023/09/19 20:52:05;;;;;;;4.97;1.75;;;;;;;-145.68;62.12;73355.88;10429716;28;20186;-74
2023/09/19 20:57:05;;;;;;;2.70;2.00;;;;;;;-145.68;61.68;73347.88;10450266;28;20207;-74
2023/09/19 21:02:06;;;;;;;2.90;1.77;;;;;;;-145.68;61.51;73327.91;10411916;28;20273;-75
2023/09/19 21:07:06;;;;;;;2.88;1.63;;;;;;;-145.68;60.81;73309.91;10446382;28;20332;-75
2023/09/19 21:12:07;;;;;;;3.08;1.42;;;;;;;-145.68;60.89;73307.91;10429904;28;20203;-74
2023/09/19 21:17:07;;;;;;;1.90;1.38;;;;;;;-145.68;60.34;73291.94;10430144;28;20188;-75
2023/09/19 21:22:08;;;;;;;5.13;1.77;;;;;;;-145.68;60.31;73283.94;10446852;28;20309;-74
2023/09/19 21:27:10;;;;;;;3.08;1.30;;;;;;;-145.68;60.40;73287.94;10446802;28;20207;-75
2023/09/19 21:32:11;;;;;;;3.10;1.58;;;;;;;-145.68;61.35;73301.91;10448613;28;20290;-75
2023/09/19 21:37:14;;;;;;;5.00;1.48;;;;;;;-145.68;60.83;73283.94;10446200;28;20606;-74
2023/09/19 21:42:14;;;;;;;3.50;1.80;;;;;;;-145.68;61.00;73275.94;10428856;28;20216;-75
2023/09/19 21:47:15;;;;;;;5.38;1.55;;;;;;;-145.68;61.38;73283.94;10423869;28;20250;-75
2023/09/19 21:52:15;;;;;;;1.98;1.63;;;;;;;-145.68;61.08;73285.94;10447963;28;20988;-75
2023/09/19 21:57:16;;;;;;;6.45;1.73;;;;;;;-145.68;61.63;73301.91;10446475;28;20603;-75
2023/09/19 22:02:16;;;;;;;4.43;1.60;;;;;;;-145.68;61.59;73305.91;10445184;28;20241;-75
2023/09/19 22:07:16;;;;;;;2.92;1.45;;;;;;;-145.68;62.25;73307.91;10445920;28;20195;-74
2023/09/19 22:12:17;;;;;;;2.25;1.40;;;;;;;-145.68;62.57;73307.91;10447408;28;20719;-74
2023/09/19 22:17:18;;;;;;;4.88;1.80;;;;;;;-145.68;62.67;73311.91;10448861;28;20192;-74
2023/09/19 22:22:19;;;;;;;5.65;1.70;;;;;;;-145.68;63.01;73307.91;10453335;28;20211;-72
2023/09/19 22:27:20;;;;;;;2.03;1.30;;;;;;;-145.68;63.42;73301.91;10452953;28;20672;-74
2023/09/19 22:32:20;;;;;;;4.47;1.65;;;;;;;-145.68;63.74;73313.91;10455424;28;20751;-74
2023/09/19 22:37:24;;;;;;;3.53;1.40;;;;;;;-145.68;64.04;73307.91;10453023;28;20206;-74
2023/09/19 22:42:25;;;;;;;3.75;1.30;;;;;;;-145.68;64.06;73301.91;10452511;28;20696;-74
2023/09/19 22:47:26;;;;;;;3.40;1.70;;;;;;;-145.68;63.65;73279.94;10436674;28;20238;-75
2023/09/19 22:52:29;;;;;;;3.92;1.40;;;;;;;-145.68;64.26;73287.94;10452304;28;20681;-75
2023/09/19 22:57:29;;;;;;;2.72;1.40;;;;;;;-145.68;64.38;73299.91;10452074;28;20201;-75
2023/09/19 23:02:30;;;;;;;1.63;1.35;;;;;;;-145.68;64.61;73289.94;10448158;28;20220;-75